sensor_id;sensor_type;location;lat;lon;timestamp;P1;durP1;ratioP1;P2;durP2;ratioP2
30010;SDS011;16851;53.564;8.112;2023-07-22T00:01:40;16.08;;;7.82;;
30010;SDS011;16851;53.564;8.112;2023-07-22T00:06:42;15.23;;;7.68;;
30010;SDS011;16851;53.564;8.112;2023-07-22T00:11:46;15.82;;;8.35;;
30010;SDS011;16851;53.564;8.112;2023-07-22T00:16:54;13.40;;;7.82;;
30010;SDS011;16851;53.564;8.112;2023-07-22T00:21:55;17.10;;;8.57;;
30010;SDS011;16851;53.564;8.112;2023-07-22T00:27:00;15.95;;;8.65;;
30010;SDS011;16851;53.564;8.112;2023-07-22T00:32:04;17.98;;;8.60;;
30010;SDS011;16851;53.564;8.112;2023-07-22T00:37:10;17.85;;;8.15;;
30010;SDS011;16851;53.564;8.112;2023-07-22T00:42:14;17.00;;;8.90;;
30010;SDS011;16851;53.564;8.112;2023-07-22T00:47:15;15.07;;;7.88;;
30010;SDS011;16851;53.564;8.112;2023-07-22T00:52:17;14.07;;;8.48;;
30010;SDS011;16851;53.564;8.112;2023-07-22T00:57:22;19.85;;;9.30;;
30010;SDS011;16851;53.564;8.112;2023-07-22T01:02:31;17.90;;;8.98;;
30010;SDS011;16851;53.564;8.112;2023-07-22T01:07:34;20.20;;;8.82;;
30010;SDS011;16851;53.564;8.112;2023-07-22T01:12:39;19.02;;;8.98;;
30010;SDS011;16851;53.564;8.112;2023-07-22T01:17:41;16.02;;;8.55;;
30010;SDS011;16851;53.564;8.112;2023-07-22T01:22:49;14.70;;;8.98;;
30010;SDS011;16851;53.564;8.112;2023-07-22T01:27:55;15.13;;;8.30;;
30010;SDS011;16851;53.564;8.112;2023-07-22T01:32:59;14.95;;;8.55;;
30010;SDS011;16851;53.564;8.112;2023-07-22T01:38:03;19.92;;;9.98;;
30010;SDS011;16851;53.564;8.112;2023-07-22T01:43:05;18.23;;;8.43;;
30010;SDS011;16851;53.564;8.112;2023-07-22T01:48:07;18.15;;;8.55;;
30010;SDS011;16851;53.564;8.112;2023-07-22T01:53:09;16.38;;;8.57;;
30010;SDS011;16851;53.564;8.112;2023-07-22T01:58:11;20.17;;;8.32;;
30010;SDS011;16851;53.564;8.112;2023-07-22T02:03:13;14.82;;;7.70;;
30010;SDS011;16851;53.564;8.112;2023-07-22T02:08:15;15.63;;;8.57;;
30010;SDS011;16851;53.564;8.112;2023-07-22T02:13:16;16.40;;;8.40;;
30010;SDS011;16851;53.564;8.112;2023-07-22T02:18:18;15.88;;;8.10;;
30010;SDS011;16851;53.564;8.112;2023-07-22T02:23:20;15.60;;;7.80;;
30010;SDS011;16851;53.564;8.112;2023-07-22T02:28:25;16.63;;;8.38;;
30010;SDS011;16851;53.564;8.112;2023-07-22T02:33:32;15.13;;;7.85;;
30010;SDS011;16851;53.564;8.112;2023-07-22T02:38:38;13.38;;;7.32;;
30010;SDS011;16851;53.564;8.112;2023-07-22T02:43:40;16.05;;;7.15;;
30010;SDS011;16851;53.564;8.112;2023-07-22T02:48:44;12.00;;;6.47;;
30010;SDS011;16851;53.564;8.112;2023-07-22T02:53:46;12.77;;;6.88;;
30010;SDS011;16851;53.564;8.112;2023-07-22T02:58:50;19.05;;;6.90;;
30010;SDS011;16851;53.564;8.112;2023-07-22T03:03:54;14.20;;;6.63;;
30010;SDS011;16851;53.564;8.112;2023-07-22T03:08:58;12.88;;;6.72;;
30010;SDS011;16851;53.564;8.112;2023-07-22T03:14:02;19.45;;;6.93;;
30010;SDS011;16851;53.564;8.112;2023-07-22T03:19:07;15.27;;;6.22;;
30010;SDS011;16851;53.564;8.112;2023-07-22T03:24:11;15.93;;;6.95;;
30010;SDS011;16851;53.564;8.112;2023-07-22T03:29:13;10.63;;;6.05;;
30010;SDS011;16851;53.564;8.112;2023-07-22T03:34:19;16.50;;;6.10;;
30010;SDS011;16851;53.564;8.112;2023-07-22T03:39:21;10.73;;;4.63;;
30010;SDS011;16851;53.564;8.112;2023-07-22T03:44:25;10.85;;;5.47;;
30010;SDS011;16851;53.564;8.112;2023-07-22T03:49:33;16.83;;;6.25;;
30010;SDS011;16851;53.564;8.112;2023-07-22T03:54:37;11.60;;;5.55;;
30010;SDS011;16851;53.564;8.112;2023-07-22T03:59:42;8.25;;;4.93;;
30010;SDS011;16851;53.564;8.112;2023-07-22T04:04:44;13.45;;;5.97;;
30010;SDS011;16851;53.564;8.112;2023-07-22T04:09:48;14.45;;;5.93;;
30010;SDS011;16851;53.564;8.112;2023-07-22T04:14:50;12.35;;;5.97;;
30010;SDS011;16851;53.564;8.112;2023-07-22T04:19:52;16.55;;;6.55;;
30010;SDS011;16851;53.564;8.112;2023-07-22T04:24:54;13.68;;;5.97;;
30010;SDS011;16851;53.564;8.112;2023-07-22T04:29:56;9.02;;;5.22;;
30010;SDS011;16851;53.564;8.112;2023-07-22T04:34:57;15.70;;;5.97;;
30010;SDS011;16851;53.564;8.112;2023-07-22T04:40:01;14.50;;;6.75;;
30010;SDS011;16851;53.564;8.112;2023-07-22T04:45:07;15.48;;;6.30;;
30010;SDS011;16851;53.564;8.112;2023-07-22T04:50:13;15.88;;;6.78;;
30010;SDS011;16851;53.564;8.112;2023-07-22T04:55:15;12.57;;;6.22;;
30010;SDS011;16851;53.564;8.112;2023-07-22T05:00:17;17.10;;;6.07;;
30010;SDS011;16851;53.564;8.112;2023-07-22T05:05:23;10.27;;;5.50;;
30010;SDS011;16851;53.564;8.112;2023-07-22T05:10:25;13.57;;;6.20;;
30010;SDS011;16851;53.564;8.112;2023-07-22T05:15:26;12.98;;;6.00;;
30010;SDS011;16851;53.564;8.112;2023-07-22T05:20:30;13.23;;;6.78;;
30010;SDS011;16851;53.564;8.112;2023-07-22T05:25:37;15.40;;;6.10;;
30010;SDS011;16851;53.564;8.112;2023-07-22T05:30:39;10.85;;;6.10;;
30010;SDS011;16851;53.564;8.112;2023-07-22T05:35:41;10.95;;;5.68;;
30010;SDS011;16851;53.564;8.112;2023-07-22T05:40:43;11.77;;;5.40;;
30010;SDS011;16851;53.564;8.112;2023-07-22T05:45:45;11.93;;;5.10;;
30010;SDS011;16851;53.564;8.112;2023-07-22T05:50:50;11.30;;;5.03;;
30010;SDS011;16851;53.564;8.112;2023-07-22T05:55:54;7.32;;;4.10;;
30010;SDS011;16851;53.564;8.112;2023-07-22T06:00:56;11.90;;;5.05;;
30010;SDS011;16851;53.564;8.112;2023-07-22T06:05:58;8.05;;;4.40;;
30010;SDS011;16851;53.564;8.112;2023-07-22T06:11:02;9.80;;;3.85;;
30010;SDS011;16851;53.564;8.112;2023-07-22T06:16:04;10.40;;;3.78;;
30010;SDS011;16851;53.564;8.112;2023-07-22T06:21:11;9.13;;;4.05;;
30010;SDS011;16851;53.564;8.112;2023-07-22T06:26:20;7.57;;;3.65;;
30010;SDS011;16851;53.564;8.112;2023-07-22T06:31:24;7.20;;;3.75;;
30010;SDS011;16851;53.564;8.112;2023-07-22T06:36:26;10.77;;;3.15;;
30010;SDS011;16851;53.564;8.112;2023-07-22T06:41:30;5.35;;;3.10;;
30010;SDS011;16851;53.564;8.112;2023-07-22T06:46:32;8.35;;;3.40;;
30010;SDS011;16851;53.564;8.112;2023-07-22T06:51:34;11.10;;;3.08;;
30010;SDS011;16851;53.564;8.112;2023-07-22T06:56:36;7.63;;;3.10;;
30010;SDS011;16851;53.564;8.112;2023-07-22T07:01:37;5.60;;;2.45;;
30010;SDS011;16851;53.564;8.112;2023-07-22T07:06:39;5.57;;;2.25;;
30010;SDS011;16851;53.564;8.112;2023-07-22T07:11:44;4.72;;;2.00;;
30010;SDS011;16851;53.564;8.112;2023-07-22T07:16:48;5.18;;;2.50;;
30010;SDS011;16851;53.564;8.112;2023-07-22T07:21:57;5.88;;;2.22;;
30010;SDS011;16851;53.564;8.112;2023-07-22T07:26:59;4.93;;;2.08;;
30010;SDS011;16851;53.564;8.112;2023-07-22T07:32:01;5.28;;;1.98;;
30010;SDS011;16851;53.564;8.112;2023-07-22T07:37:06;9.60;;;2.97;;
30010;SDS011;16851;53.564;8.112;2023-07-22T07:42:08;5.72;;;2.10;;
30010;SDS011;16851;53.564;8.112;2023-07-22T07:47:10;3.15;;;2.08;;
30010;SDS011;16851;53.564;8.112;2023-07-22T07:52:12;4.13;;;2.20;;
30010;SDS011;16851;53.564;8.112;2023-07-22T07:57:13;6.07;;;2.30;;
30010;SDS011;16851;53.564;8.112;2023-07-22T08:02:15;6.63;;;2.40;;
30010;SDS011;16851;53.564;8.112;2023-07-22T08:07:17;6.45;;;2.45;;
30010;SDS011;16851;53.564;8.112;2023-07-22T08:12:19;5.70;;;2.50;;
30010;SDS011;16851;53.564;8.112;2023-07-22T08:17:22;6.50;;;3.17;;
30010;SDS011;16851;53.564;8.112;2023-07-22T08:22:24;4.78;;;2.60;;
30010;SDS011;16851;53.564;8.112;2023-07-22T08:27:31;5.32;;;2.45;;
30010;SDS011;16851;53.564;8.112;2023-07-22T08:32:33;4.72;;;2.63;;
30010;SDS011;16851;53.564;8.112;2023-07-22T08:37:35;5.13;;;2.33;;
30010;SDS011;16851;53.564;8.112;2023-07-22T08:42:37;3.78;;;2.38;;
30010;SDS011;16851;53.564;8.112;2023-07-22T08:47:44;3.85;;;2.70;;
30010;SDS011;16851;53.564;8.112;2023-07-22T08:52:54;5.30;;;3.47;;
30010;SDS011;16851;53.564;8.112;2023-07-22T08:57:56;6.40;;;3.67;;
30010;SDS011;16851;53.564;8.112;2023-07-22T09:02:58;6.53;;;4.07;;
30010;SDS011;16851;53.564;8.112;2023-07-22T09:08:04;8.60;;;4.50;;
30010;SDS011;16851;53.564;8.112;2023-07-22T09:13:06;8.35;;;4.90;;
30010;SDS011;16851;53.564;8.112;2023-07-22T09:18:11;7.97;;;5.60;;
30010;SDS011;16851;53.564;8.112;2023-07-22T09:23:13;9.98;;;6.30;;
30010;SDS011;16851;53.564;8.112;2023-07-22T09:28:15;10.77;;;6.40;;
30010;SDS011;16851;53.564;8.112;2023-07-22T09:33:20;9.98;;;6.55;;
30010;SDS011;16851;53.564;8.112;2023-07-22T09:38:25;7.03;;;5.55;;
30010;SDS011;16851;53.564;8.112;2023-07-22T09:43:29;7.90;;;5.97;;
30010;SDS011;16851;53.564;8.112;2023-07-22T09:48:42;8.35;;;6.15;;
30010;SDS011;16851;53.564;8.112;2023-07-22T09:53:46;10.43;;;6.20;;
30010;SDS011;16851;53.564;8.112;2023-07-22T09:59:02;7.50;;;5.57;;
30010;SDS011;16851;53.564;8.112;2023-07-22T10:04:10;9.55;;;6.47;;
30010;SDS011;16851;53.564;8.112;2023-07-22T10:09:17;10.73;;;6.38;;
30010;SDS011;16851;53.564;8.112;2023-07-22T10:14:22;7.65;;;5.55;;
30010;SDS011;16851;53.564;8.112;2023-07-22T10:19:26;10.82;;;6.15;;
30010;SDS011;16851;53.564;8.112;2023-07-22T10:24:28;11.30;;;6.18;;
30010;SDS011;16851;53.564;8.112;2023-07-22T10:29:30;9.45;;;6.35;;
30010;SDS011;16851;53.564;8.112;2023-07-22T10:34:35;13.85;;;6.70;;
30010;SDS011;16851;53.564;8.112;2023-07-22T10:39:39;12.20;;;6.82;;
30010;SDS011;16851;53.564;8.112;2023-07-22T10:44:42;11.85;;;7.70;;
30010;SDS011;16851;53.564;8.112;2023-07-22T10:49:45;9.52;;;5.97;;
30010;SDS011;16851;53.564;8.112;2023-07-22T10:54:51;11.73;;;7.22;;
30010;SDS011;16851;53.564;8.112;2023-07-22T10:59:55;11.75;;;6.90;;
30010;SDS011;16851;53.564;8.112;2023-07-22T11:04:59;9.70;;;6.38;;
30010;SDS011;16851;53.564;8.112;2023-07-22T11:10:14;6.10;;;4.40;;
30010;SDS011;16851;53.564;8.112;2023-07-22T11:15:20;7.53;;;3.88;;
30010;SDS011;16851;53.564;8.112;2023-07-22T11:20:24;9.23;;;4.85;;
30010;SDS011;16851;53.564;8.112;2023-07-22T11:25:28;6.80;;;4.53;;
30010;SDS011;16851;53.564;8.112;2023-07-22T11:30:30;9.68;;;4.95;;
30010;SDS011;16851;53.564;8.112;2023-07-22T11:35:32;6.07;;;4.30;;
30010;SDS011;16851;53.564;8.112;2023-07-22T11:40:37;7.22;;;3.88;;
30010;SDS011;16851;53.564;8.112;2023-07-22T11:45:40;8.48;;;4.22;;
30010;SDS011;16851;53.564;8.112;2023-07-22T11:50:44;9.18;;;5.13;;
30010;SDS011;16851;53.564;8.112;2023-07-22T11:55:45;7.05;;;4.88;;
30010;SDS011;16851;53.564;8.112;2023-07-22T12:00:48;7.28;;;5.25;;
30010;SDS011;16851;53.564;8.112;2023-07-22T12:06:07;7.28;;;4.95;;
30010;SDS011;16851;53.564;8.112;2023-07-22T12:11:15;7.80;;;5.15;;
30010;SDS011;16851;53.564;8.112;2023-07-22T12:16:21;7.95;;;4.50;;
30010;SDS011;16851;53.564;8.112;2023-07-22T12:21:25;7.65;;;5.35;;
30010;SDS011;16851;53.564;8.112;2023-07-22T12:26:29;8.13;;;4.55;;
30010;SDS011;16851;53.564;8.112;2023-07-22T12:31:31;6.60;;;4.00;;
30010;SDS011;16851;53.564;8.112;2023-07-22T12:36:33;8.30;;;5.30;;
30010;SDS011;16851;53.564;8.112;2023-07-22T12:41:34;8.80;;;5.72;;
30010;SDS011;16851;53.564;8.112;2023-07-22T12:46:41;8.93;;;5.97;;
30010;SDS011;16851;53.564;8.112;2023-07-22T12:51:46;7.82;;;5.97;;
30010;SDS011;16851;53.564;8.112;2023-07-22T12:56:48;7.68;;;5.47;;
30010;SDS011;16851;53.564;8.112;2023-07-22T13:01:50;8.48;;;6.72;;
30010;SDS011;16851;53.564;8.112;2023-07-22T13:06:54;10.95;;;6.22;;
30010;SDS011;16851;53.564;8.112;2023-07-22T13:11:56;9.98;;;6.22;;
30010;SDS011;16851;53.564;8.112;2023-07-22T13:17:00;9.18;;;6.22;;
30010;SDS011;16851;53.564;8.112;2023-07-22T13:22:04;11.13;;;6.47;;
30010;SDS011;16851;53.564;8.112;2023-07-22T13:27:06;11.32;;;6.80;;
30010;SDS011;16851;53.564;8.112;2023-07-22T13:32:08;10.40;;;6.60;;
30010;SDS011;16851;53.564;8.112;2023-07-22T13:37:15;9.63;;;6.05;;
30010;SDS011;16851;53.564;8.112;2023-07-22T13:42:19;8.48;;;5.80;;
30010;SDS011;16851;53.564;8.112;2023-07-22T13:47:21;11.40;;;6.95;;
30010;SDS011;16851;53.564;8.112;2023-07-22T13:52:25;9.63;;;7.13;;
30010;SDS011;16851;53.564;8.112;2023-07-22T13:57:28;11.05;;;8.23;;
30010;SDS011;16851;53.564;8.112;2023-07-22T14:02:30;11.20;;;8.38;;
30010;SDS011;16851;53.564;8.112;2023-07-22T14:07:32;11.57;;;7.82;;
30010;SDS011;16851;53.564;8.112;2023-07-22T14:12:34;12.82;;;7.95;;
30010;SDS011;16851;53.564;8.112;2023-07-22T14:17:36;11.68;;;7.63;;
30010;SDS011;16851;53.564;8.112;2023-07-22T14:22:42;10.90;;;7.95;;
30010;SDS011;16851;53.564;8.112;2023-07-22T14:27:52;10.52;;;7.55;;
30010;SDS011;16851;53.564;8.112;2023-07-22T14:32:55;12.30;;;8.88;;
30010;SDS011;16851;53.564;8.112;2023-07-22T14:37:57;10.90;;;8.45;;
30010;SDS011;16851;53.564;8.112;2023-07-22T14:42:59;9.63;;;7.57;;
30010;SDS011;16851;53.564;8.112;2023-07-22T14:48:03;9.20;;;7.00;;
30010;SDS011;16851;53.564;8.112;2023-07-22T14:53:10;9.15;;;7.20;;
30010;SDS011;16851;53.564;8.112;2023-07-22T14:58:12;6.85;;;5.90;;
30010;SDS011;16851;53.564;8.112;2023-07-22T15:03:14;7.20;;;5.40;;
30010;SDS011;16851;53.564;8.112;2023-07-22T15:08:18;8.93;;;7.07;;
30010;SDS011;16851;53.564;8.112;2023-07-22T15:13:25;10.30;;;7.18;;
30010;SDS011;16851;53.564;8.112;2023-07-22T15:18:29;8.38;;;7.05;;
30010;SDS011;16851;53.564;8.112;2023-07-22T15:23:36;10.88;;;7.72;;
30010;SDS011;16851;53.564;8.112;2023-07-22T15:28:40;9.90;;;7.60;;
30010;SDS011;16851;53.564;8.112;2023-07-22T15:33:44;10.75;;;7.57;;
30010;SDS011;16851;53.564;8.112;2023-07-22T15:38:50;9.35;;;7.63;;
30010;SDS011;16851;53.564;8.112;2023-07-22T15:43:52;10.10;;;7.18;;
30010;SDS011;16851;53.564;8.112;2023-07-22T15:48:56;10.02;;;8.15;;
30010;SDS011;16851;53.564;8.112;2023-07-22T15:54:00;9.70;;;7.68;;
30010;SDS011;16851;53.564;8.112;2023-07-22T15:59:03;13.38;;;8.55;;
30010;SDS011;16851;53.564;8.112;2023-07-22T16:04:08;10.80;;;7.43;;
30010;SDS011;16851;53.564;8.112;2023-07-22T16:09:09;10.20;;;7.57;;
30010;SDS011;16851;53.564;8.112;2023-07-22T16:14:13;10.45;;;6.85;;
30010;SDS011;16851;53.564;8.112;2023-07-22T16:19:18;10.95;;;7.95;;
30010;SDS011;16851;53.564;8.112;2023-07-22T16:24:22;8.50;;;6.30;;
30010;SDS011;16851;53.564;8.112;2023-07-22T16:29:24;8.32;;;6.30;;
30010;SDS011;16851;53.564;8.112;2023-07-22T16:34:27;8.25;;;6.38;;
30010;SDS011;16851;53.564;8.112;2023-07-22T16:39:29;7.40;;;5.93;;
30010;SDS011;16851;53.564;8.112;2023-07-22T16:44:31;13.32;;;7.05;;
30010;SDS011;16851;53.564;8.112;2023-07-22T16:49:33;10.20;;;7.03;;
30010;SDS011;16851;53.564;8.112;2023-07-22T16:54:40;12.65;;;7.75;;
30010;SDS011;16851;53.564;8.112;2023-07-22T16:59:41;9.57;;;7.38;;
30010;SDS011;16851;53.564;8.112;2023-07-22T17:04:46;11.52;;;7.93;;
30010;SDS011;16851;53.564;8.112;2023-07-22T17:09:55;11.98;;;8.20;;
30010;SDS011;16851;53.564;8.112;2023-07-22T17:14:59;17.08;;;10.25;;
30010;SDS011;16851;53.564;8.112;2023-07-22T17:20:03;14.95;;;10.57;;
30010;SDS011;16851;53.564;8.112;2023-07-22T17:25:06;14.85;;;10.48;;
30010;SDS011;16851;53.564;8.112;2023-07-22T17:30:09;14.45;;;11.10;;
30010;SDS011;16851;53.564;8.112;2023-07-22T17:35:11;16.17;;;12.15;;
30010;SDS011;16851;53.564;8.112;2023-07-22T17:40:13;16.10;;;11.75;;
30010;SDS011;16851;53.564;8.112;2023-07-22T17:45:15;19.63;;;12.68;;
30010;SDS011;16851;53.564;8.112;2023-07-22T17:50:19;15.38;;;11.98;;
30010;SDS011;16851;53.564;8.112;2023-07-22T17:55:22;16.45;;;12.88;;
30010;SDS011;16851;53.564;8.112;2023-07-22T18:00:26;16.00;;;13.35;;
30010;SDS011;16851;53.564;8.112;2023-07-22T18:05:28;15.73;;;13.23;;
30010;SDS011;16851;53.564;8.112;2023-07-22T18:10:32;15.57;;;12.15;;
30010;SDS011;16851;53.564;8.112;2023-07-22T18:15:34;15.48;;;13.38;;
30010;SDS011;16851;53.564;8.112;2023-07-22T18:20:39;16.48;;;12.27;;
30010;SDS011;16851;53.564;8.112;2023-07-22T18:25:45;15.60;;;12.98;;
30010;SDS011;16851;53.564;8.112;2023-07-22T18:30:47;16.90;;;13.30;;
30010;SDS011;16851;53.564;8.112;2023-07-22T18:35:49;18.30;;;13.32;;
30010;SDS011;16851;53.564;8.112;2023-07-22T18:40:53;17.08;;;13.82;;
30010;SDS011;16851;53.564;8.112;2023-07-22T18:45:55;18.20;;;13.55;;
30010;SDS011;16851;53.564;8.112;2023-07-22T18:50:59;20.98;;;14.98;;
30010;SDS011;16851;53.564;8.112;2023-07-22T18:56:06;17.88;;;13.25;;
30010;SDS011;16851;53.564;8.112;2023-07-22T19:01:08;16.83;;;13.13;;
30010;SDS011;16851;53.564;8.112;2023-07-22T19:06:10;16.58;;;13.25;;
30010;SDS011;16851;53.564;8.112;2023-07-22T19:11:12;20.25;;;13.40;;
30010;SDS011;16851;53.564;8.112;2023-07-22T19:16:16;16.23;;;13.27;;
30010;SDS011;16851;53.564;8.112;2023-07-22T19:21:18;21.52;;;15.82;;
30010;SDS011;16851;53.564;8.112;2023-07-22T19:26:22;17.38;;;12.90;;
30010;SDS011;16851;53.564;8.112;2023-07-22T19:31:28;17.30;;;13.77;;
30010;SDS011;16851;53.564;8.112;2023-07-22T19:36:30;21.92;;;13.35;;
30010;SDS011;16851;53.564;8.112;2023-07-22T19:41:34;23.35;;;14.85;;
30010;SDS011;16851;53.564;8.112;2023-07-22T19:46:38;18.75;;;13.10;;
30010;SDS011;16851;53.564;8.112;2023-07-22T19:51:40;16.42;;;12.90;;
30010;SDS011;16851;53.564;8.112;2023-07-22T19:56:42;16.45;;;13.48;;
30010;SDS011;16851;53.564;8.112;2023-07-22T20:01:46;19.70;;;14.25;;
30010;SDS011;16851;53.564;8.112;2023-07-22T20:06:50;14.68;;;12.40;;
30010;SDS011;16851;53.564;8.112;2023-07-22T20:11:52;19.08;;;13.30;;
30010;SDS011;16851;53.564;8.112;2023-07-22T20:16:54;18.48;;;12.93;;
30010;SDS011;16851;53.564;8.112;2023-07-22T20:21:59;16.05;;;11.88;;
30010;SDS011;16851;53.564;8.112;2023-07-22T20:27:03;17.92;;;14.07;;
30010;SDS011;16851;53.564;8.112;2023-07-22T20:32:08;19.25;;;12.80;;
30010;SDS011;16851;53.564;8.112;2023-07-22T20:37:28;17.75;;;12.15;;
30010;SDS011;16851;53.564;8.112;2023-07-22T20:42:30;14.60;;;10.88;;
30010;SDS011;16851;53.564;8.112;2023-07-22T20:47:36;14.93;;;11.75;;
30010;SDS011;16851;53.564;8.112;2023-07-22T20:52:40;19.00;;;11.57;;
30010;SDS011;16851;53.564;8.112;2023-07-22T20:57:42;14.60;;;12.07;;
30010;SDS011;16851;53.564;8.112;2023-07-22T21:02:46;17.42;;;13.10;;
30010;SDS011;16851;53.564;8.112;2023-07-22T21:07:48;16.25;;;11.48;;
30010;SDS011;16851;53.564;8.112;2023-07-22T21:12:53;17.25;;;12.02;;
30010;SDS011;16851;53.564;8.112;2023-07-22T21:17:57;19.58;;;11.80;;
30010;SDS011;16851;53.564;8.112;2023-07-22T21:23:06;21.52;;;12.20;;
30010;SDS011;16851;53.564;8.112;2023-07-22T21:28:08;16.77;;;11.55;;
30010;SDS011;16851;53.564;8.112;2023-07-22T21:33:16;13.85;;;11.45;;
30010;SDS011;16851;53.564;8.112;2023-07-22T21:38:24;19.38;;;11.88;;
30010;SDS011;16851;53.564;8.112;2023-07-22T21:43:28;16.67;;;11.90;;
30010;SDS011;16851;53.564;8.112;2023-07-22T21:48:35;17.83;;;12.73;;
30010;SDS011;16851;53.564;8.112;2023-07-22T21:53:37;20.13;;;12.73;;
30010;SDS011;16851;53.564;8.112;2023-07-22T21:58:38;17.67;;;12.88;;
30010;SDS011;16851;53.564;8.112;2023-07-22T22:03:40;20.65;;;13.43;;
30010;SDS011;16851;53.564;8.112;2023-07-22T22:08:42;19.83;;;14.27;;
30010;SDS011;16851;53.564;8.112;2023-07-22T22:13:46;18.33;;;14.93;;
30010;SDS011;16851;53.564;8.112;2023-07-22T22:18:51;21.05;;;16.67;;
30010;SDS011;16851;53.564;8.112;2023-07-22T22:23:52;21.17;;;18.70;;
30010;SDS011;16851;53.564;8.112;2023-07-22T22:28:54;26.60;;;20.23;;
30010;SDS011;16851;53.564;8.112;2023-07-22T22:33:56;28.05;;;20.60;;
30010;SDS011;16851;53.564;8.112;2023-07-22T22:38:58;25.15;;;19.85;;
30010;SDS011;16851;53.564;8.112;2023-07-22T22:43:59;26.48;;;19.70;;
30010;SDS011;16851;53.564;8.112;2023-07-22T22:49:06;19.95;;;16.30;;
30010;SDS011;16851;53.564;8.112;2023-07-22T22:54:10;23.63;;;16.30;;
30010;SDS011;16851;53.564;8.112;2023-07-22T22:59:14;21.02;;;17.50;;
30010;SDS011;16851;53.564;8.112;2023-07-22T23:04:16;26.42;;;18.45;;
30010;SDS011;16851;53.564;8.112;2023-07-22T23:09:20;25.60;;;20.52;;
30010;SDS011;16851;53.564;8.112;2023-07-22T23:14:22;23.35;;;20.33;;
30010;SDS011;16851;53.564;8.112;2023-07-22T23:19:25;26.65;;;20.98;;
30010;SDS011;16851;53.564;8.112;2023-07-22T23:24:27;25.45;;;20.60;;
30010;SDS011;16851;53.564;8.112;2023-07-22T23:29:31;26.20;;;21.10;;
30010;SDS011;16851;53.564;8.112;2023-07-22T23:34:35;26.10;;;21.50;;
30010;SDS011;16851;53.564;8.112;2023-07-22T23:39:37;24.70;;;21.10;;
30010;SDS011;16851;53.564;8.112;2023-07-22T23:44:41;26.40;;;21.77;;
30010;SDS011;16851;53.564;8.112;2023-07-22T23:49:45;25.83;;;21.48;;
30010;SDS011;16851;53.564;8.112;2023-07-22T23:54:49;24.58;;;20.85;;
30010;SDS011;16851;53.564;8.112;2023-07-22T23:59:53;26.85;;;16.77;;
